Flight ASXV42

  • Submitted By: Kacper Kosiorek
  • Departure Airport: Dublin (EIDW)
  • Arrival Airport: Dublin (EIDW)
  • Aircraft: C 172 (SP-OJL)
  • Flight Time: 00.44.12
  • Date Submitted: 09/07/2017
  • Route: TRAFFIC PATTERN
  • Status: Accepted
Flight Details
Gross Revenue:
(3 load / € 0.00 per unit
€ 0.00
Fuel Cost:
(7.25748 fuel used @ 0.45 / unit)
€ 3.27

Additional Log Information:

View Log

[22:26] - Cessna Skyhawk 172SP Paint4
[22:26] - Flight ASXV42 is ready to depart EIDW with a final destination of EIDW.
[22:26] - Boarding
[22:27] - COM1 - 121.10
[22:27] - Parking Brake Released
[22:27] - Parking Brake Applied
[22:30] - Transponder - 0102
[22:31] - Strobe Lights ON 3AGL
[22:31] - Navigation Lights ON 3AGL
[22:31] - Beacon Light ON 3AGL
[22:32] - Engine 1 Started
[22:34] - Strobe Lights OFF 3AGL
[22:34] - Navigation Lights OFF 3AGL
[22:34] - Beacon Lights OFF 3AGL
[22:34] - Beacon Light ON 3AGL
[22:34] - Navigation Lights ON 3AGL
[22:34] - Strobe Lights ON 3AGL
[22:34] - Taxi Lights ON 3AGL
[22:34] - Parking Brake Released
[22:35] - Taxiing to Runway
[22:40] - Landing Lights ON 3AGL
[22:40] - Flaps to position 1
[22:40] - Taking Off with 3 passengers on board
[22:40] - Take off at 73kts, with a pitch of 7deg and 141kgs of fuel on board
[22:40] - Wind Heading 240 | Wind Speed 15kts | Temperature 14 deg C
[22:40] - METAR Departure: EIDW 072000Z 24014KT 9999 -DZ FEW005 SCT008 BKN011 14/13 Q1004 TEMPO BKN010

[22:41] - Flaps to position 0 at 358ft and 86kts
[22:42] - Climbing to TOC
[22:42] - TOC reached
[22:42] - Cruise started
[22:59] - Flaps to position 1 at 1089ft and 79kts
[22:59] - Flaps to position 2 at 1109ft and 70kts
[23:00] - Flaps to position 3 at 814ft and 67kts
[23:01] - Landed at -244fpm. With 135kgs of fuel onboard and a pitch angle of 8deg.
[23:01] - Wind Heading 240 | Wind Speed 15kts | Temperature 13 deg C
[23:01] - METAR Arrival: EIDW 072030Z 25017KT 9999 -DZ FEW005 BKN010 14/13 Q1004 TEMPO BKN008

[23:02] - Taxiing to Gate
[23:02] - Flaps to position 0
[23:02] - Landing Lights OFF 3AGL
[23:08] - Beacon Lights OFF 3AGL
[23:08] - Taxi Lights OFF 3AGL
[23:09] - Parking Brake Applied
[23:09] - Arrived safely at EIDW. We hope you enjoyed your flight!
[23:09] - Navigation Lights OFF 3AGL
[23:09] - Strobe Lights OFF 3AGL
[23:09] - Engine 1 Stopped
[23:10] - Cessna Skyhawk 172SP Paint4
[23:10] - MaxSim Rate: 1x
[23:10] - SiouxAcars ver: 1.0.1.2

Route Map